バルセロナ の空港の天気 - METARとTAF

バルセロナ・エル・プラット国際空港 ( LEBL / BCN ) - スペイン バルセロナ
飛行場実況気象(Metar)
観測時間04/27 18:30 CEST (04/27 16:30 UTC)
風向・風速南南西 2m/s
視程10km以上
天気現象
少しの雲 雲底高度 610m
全天の8割程度の雲 雲底高度 1070m
気温11℃
湿度71%
気圧1015hPa
METARLEBL 271630Z 21004KT 150V240 9999 FEW020 BKN035 11/06 Q1015 NOSIG
過去の天気等 Google飛行場航空写真 Wunderground天気予報

過去48時間のMETAR

飛行場予報(TAF)
発表時間: 4/27 13:00 CEST (4/27 11:00 UTC)
予報対象時間: 27日14時 CEST ~ 28日14時 CEST
風向・風速北北西 5m/s
視程10km以上
天気現象
少しの雲 雲底高度 460m
全天の8割程度の雲 雲底高度 1,220m
27日14時 CEST ~ 27日16時 CEST に 確率 40% で一時的に
風向・風速東 8m/s 瞬間風速 13m/s
27日15時 CEST ~ 27日17時 CEST に徐々に
風向・風速不定 3m/s
28日0時 CEST ~ 28日2時 CEST に徐々に
風向・風速北北西 5m/s
TAF LEBL 271100Z 2712/2812 34010KT 9999 RA FEW015 BKN040 TX14/2712Z TN08/2806Z
PROB40 TEMPO 2712/2714 09015G25KT
BECMG 2713/2715 VRB06KT
BECMG 2722/2724 34010KT